createdAt,value
2023-04-05T00:01:20.361Z,102070.81
2023-04-05T00:03:44.276Z,102071.75
2023-04-05T00:06:09.240Z,102067.44
2023-04-05T00:08:33.013Z,102066.50
2023-04-05T00:10:58.171Z,102069.16
2023-04-05T00:13:22.703Z,102063.00
2023-04-05T00:15:46.507Z,102060.50
2023-04-05T00:18:21.863Z,102057.91
2023-04-05T00:20:45.618Z,102064.00
2023-04-05T00:23:10.567Z,102062.28
2023-04-05T00:25:34.225Z,102056.16
2023-04-05T00:27:59.226Z,102061.50
2023-04-05T00:30:23.729Z,102059.84
2023-04-05T00:32:50.185Z,102059.00
2023-04-05T00:35:14.219Z,102060.66
2023-04-05T00:37:37.949Z,102051.91
2023-04-05T00:40:01.663Z,102050.19
2023-04-05T00:42:25.614Z,102054.53
2023-04-05T00:44:50.773Z,102058.97
2023-04-05T00:47:14.517Z,102049.41
2023-04-05T00:49:39.194Z,102046.84
2023-04-05T00:52:03.978Z,102052.94
2023-04-05T00:54:28.858Z,102045.13
2023-04-05T00:56:53.338Z,102039.81
2023-04-05T00:59:17.172Z,102041.66
2023-04-05T01:01:43.280Z,102043.44
2023-04-05T01:04:07.615Z,102042.63
2023-04-05T01:06:46.333Z,102040.75
2023-04-05T01:09:23.421Z,102038.88
2023-04-05T01:11:49.018Z,102039.09
2023-04-05T01:14:12.799Z,102040.13
2023-04-05T01:16:36.903Z,102046.22
2023-04-05T01:19:04.035Z,102041.84
2023-04-05T01:22:14.941Z,102047.22
2023-04-05T01:25:02.826Z,102041.22
2023-04-05T01:27:39.429Z,102045.50
2023-04-05T01:30:10.825Z,102044.69
2023-04-05T01:33:06.268Z,102039.38
2023-04-05T01:35:39.101Z,102040.13
2023-04-05T01:38:06.481Z,102042.78
2023-04-05T01:40:31.476Z,102035.88
2023-04-05T01:42:55.308Z,102040.19
2023-04-05T01:45:20.650Z,102037.50
2023-04-05T01:47:44.417Z,102036.00
2023-04-05T01:50:10.051Z,102037.63
2023-04-05T01:52:33.851Z,102035.00
2023-04-05T01:54:57.631Z,102033.16
2023-04-05T01:57:21.568Z,102034.84
2023-04-05T01:59:45.231Z,102035.59
2023-04-05T02:02:11.002Z,102026.22
2023-04-05T02:04:35.371Z,102027.34
2023-04-05T02:07:02.398Z,102024.56
2023-04-05T02:09:27.569Z,102027.13
2023-04-05T02:11:51.564Z,102025.34
2023-04-05T02:14:15.153Z,102027.09
2023-04-05T02:16:39.086Z,102025.25
2023-04-05T02:19:06.144Z,102023.53
2023-04-05T02:21:30.176Z,102012.00
2023-04-05T02:23:54.474Z,102022.75
2023-04-05T02:26:19.817Z,102021.19
2023-04-05T02:28:44.030Z,102019.41
2023-04-05T02:31:12.011Z,102020.34
2023-04-05T02:33:39.367Z,102006.19
2023-04-05T02:36:07.436Z,102004.28
2023-04-05T02:38:31.548Z,102014.19
2023-04-05T02:40:55.521Z,102005.53
2023-04-05T02:43:19.305Z,102013.28
2023-04-05T02:45:44.387Z,101997.25
2023-04-05T02:48:10.128Z,102000.84
2023-04-05T02:50:34.484Z,102000.81
2023-04-05T02:53:00.155Z,102002.38
2023-04-05T02:55:26.105Z,101997.03
2023-04-05T02:57:49.973Z,101992.50
2023-04-05T03:00:29.176Z,101996.84
2023-04-05T03:02:55.733Z,101996.75
2023-04-05T03:05:20.817Z,101992.34
2023-04-05T03:07:51.238Z,101988.75
2023-04-05T03:10:22.569Z,101986.97
2023-04-05T03:12:52.559Z,101984.84
2023-04-05T03:15:20.633Z,101984.03
2023-04-05T03:17:45.969Z,101980.59
2023-04-05T03:20:12.932Z,101979.59
2023-04-05T03:22:36.902Z,101975.06
2023-04-05T03:25:01.317Z,101981.13
2023-04-05T03:27:29.248Z,101976.47
2023-04-05T03:30:03.898Z,101976.66
2023-04-05T03:32:32.060Z,101969.50
2023-04-05T03:35:03.816Z,101974.78
2023-04-05T03:37:28.769Z,101965.94
2023-04-05T03:39:59.123Z,101972.16
2023-04-05T03:42:22.887Z,101968.66
2023-04-05T03:44:51.270Z,101966.78
2023-04-05T03:47:15.426Z,101958.94
2023-04-05T03:49:39.760Z,101968.53
2023-04-05T03:52:03.493Z,101964.94
2023-04-05T03:54:27.145Z,101971.03
2023-04-05T03:56:54.158Z,101969.44
2023-04-05T03:59:18.084Z,101966.72
2023-04-05T04:01:44.856Z,101964.69
2023-04-05T04:04:08.800Z,101962.06
2023-04-05T04:06:32.664Z,101965.44
2023-04-05T04:08:57.161Z,101965.44
2023-04-05T04:11:20.969Z,101971.53
2023-04-05T04:13:44.938Z,101975.81
2023-04-05T04:16:29.110Z,101968.97
2023-04-05T04:19:00.045Z,101972.47
2023-04-05T04:21:33.736Z,101969.00
2023-04-05T04:24:18.857Z,101968.75
2023-04-05T04:26:43.045Z,101973.91
2023-04-05T04:29:30.684Z,101966.84
2023-04-05T04:32:15.846Z,101967.78
2023-04-05T04:35:08.256Z,101964.97
2023-04-05T04:37:59.146Z,101969.28
2023-04-05T04:40:50.934Z,101976.44
2023-04-05T04:43:47.058Z,101972.94
2023-04-05T04:46:15.185Z,101972.78
2023-04-05T04:48:57.610Z,101975.50
2023-04-05T04:51:31.512Z,101977.25
2023-04-05T04:53:55.608Z,101978.16
2023-04-05T04:56:19.265Z,101979.00
2023-04-05T04:58:43.001Z,101977.16
2023-04-05T05:01:10.435Z,101974.47
2023-04-05T05:03:36.730Z,101971.59
2023-04-05T05:06:00.320Z,101969.84
2023-04-05T05:08:29.224Z,101965.19
2023-04-05T05:10:53.788Z,101966.41
2023-04-05T05:13:17.548Z,101965.34
2023-04-05T05:15:42.443Z,101966.81
2023-04-05T05:18:06.422Z,101957.16
2023-04-05T05:20:30.247Z,101969.84
2023-04-05T05:22:54.102Z,101962.59
2023-04-05T05:25:20.186Z,101959.81
2023-04-05T05:27:44.027Z,101962.38
2023-04-05T05:30:09.324Z,101969.34
2023-04-05T05:32:33.027Z,101967.47
2023-04-05T05:34:56.812Z,101967.06
2023-04-05T05:37:20.457Z,101963.88
2023-04-05T05:39:44.636Z,101960.03
2023-04-05T05:42:09.766Z,101960.84
2023-04-05T05:44:33.422Z,101965.78
2023-04-05T05:46:57.086Z,101961.28
2023-04-05T05:49:20.745Z,101951.13
2023-04-05T05:51:44.470Z,101958.16
2023-04-05T05:54:08.143Z,101945.94
2023-04-05T05:56:31.827Z,101952.31
2023-04-05T05:58:57.163Z,101956.72
2023-04-05T06:01:22.933Z,101950.47
2023-04-05T06:03:46.766Z,101944.38
2023-04-05T06:06:11.381Z,101950.28
2023-04-05T06:08:35.233Z,101949.59
2023-04-05T06:10:59.021Z,101945.81
2023-04-05T06:13:22.864Z,101958.88
2023-04-05T06:15:49.381Z,101958.84
2023-04-05T06:18:13.137Z,101959.50
2023-04-05T06:20:40.418Z,101964.38
2023-04-05T06:23:04.322Z,101958.75
2023-04-05T06:25:28.039Z,101960.44
2023-04-05T06:27:51.767Z,101963.81
2023-04-05T06:30:16.474Z,101959.84
2023-04-05T06:32:41.826Z,101957.34
2023-04-05T06:35:06.776Z,101957.25
2023-04-05T06:37:30.360Z,101956.69
2023-04-05T06:39:54.066Z,101953.59
2023-04-05T06:42:17.633Z,101953.06
2023-04-05T06:44:49.082Z,101945.88
2023-04-05T06:47:12.824Z,101954.09
2023-04-05T06:49:37.833Z,101950.84
2023-04-05T06:52:02.959Z,101953.16
2023-04-05T06:54:26.546Z,101939.56
2023-04-05T06:56:50.352Z,101937.41
2023-04-05T06:59:14.070Z,101936.88
2023-04-05T07:01:38.076Z,101941.03
2023-04-05T07:04:01.802Z,101941.25
2023-04-05T07:06:27.093Z,101937.47
2023-04-05T07:08:51.110Z,101933.53
2023-04-05T07:11:15.416Z,101937.22
2023-04-05T07:13:39.058Z,101935.78
2023-04-05T07:16:04.413Z,101939.88
2023-04-05T07:18:28.328Z,101938.19
2023-04-05T07:20:52.313Z,101926.97
2023-04-05T07:23:18.294Z,101939.38
2023-04-05T07:25:42.502Z,101938.44
2023-04-05T07:28:06.397Z,101943.19
2023-04-05T07:30:31.918Z,101948.66
2023-04-05T07:32:55.926Z,101945.25
2023-04-05T07:35:19.803Z,101946.84
2023-04-05T07:37:43.399Z,101941.63
2023-04-05T07:40:11.118Z,101942.16
2023-04-05T07:42:35.233Z,101939.22
2023-04-05T07:44:58.915Z,101937.78
2023-04-05T07:47:22.570Z,101925.00
2023-04-05T07:49:46.569Z,101934.91
2023-04-05T07:52:10.256Z,101944.19
2023-04-05T07:54:34.681Z,101931.16
2023-04-05T07:57:01.147Z,101927.38
2023-04-05T07:59:25.144Z,101930.03
2023-04-05T08:01:48.877Z,101938.34
2023-04-05T08:04:12.762Z,101928.72
2023-04-05T08:06:36.811Z,101928.19
2023-04-05T08:09:00.573Z,101933.88
2023-04-05T08:11:24.307Z,101930.97
2023-04-05T08:13:49.663Z,101928.50
2023-04-05T08:16:13.575Z,101931.00
2023-04-05T08:18:37.583Z,101931.09
2023-04-05T08:21:01.472Z,101926.41
2023-04-05T08:23:25.431Z,101935.34
2023-04-05T08:25:49.245Z,101926.53
2023-04-05T08:28:13.153Z,101923.91
2023-04-05T08:30:39.189Z,101927.81
2023-04-05T08:33:03.125Z,101925.97
2023-04-05T08:35:26.955Z,101924.47
2023-04-05T08:37:50.985Z,101930.81
2023-04-05T08:40:15.275Z,101925.63
2023-04-05T08:42:47.722Z,101919.69
2023-04-05T08:45:12.400Z,101921.38
2023-04-05T08:47:39.260Z,101916.75
2023-04-05T08:50:03.257Z,101917.97
2023-04-05T08:52:27.676Z,101913.84
2023-04-05T08:54:53.517Z,101915.72
2023-04-05T08:57:17.998Z,101914.44
2023-04-05T08:59:43.102Z,101918.25
2023-04-05T09:02:21.143Z,101924.28
2023-04-05T09:04:48.925Z,101921.28
2023-04-05T09:07:15.052Z,101914.06
2023-04-05T09:09:41.271Z,101904.72
2023-04-05T09:12:05.745Z,101905.47
2023-04-05T09:14:31.434Z,101913.44
2023-04-05T09:16:56.177Z,101905.88
2023-04-05T09:19:19.947Z,101901.56
2023-04-05T09:22:13.300Z,101905.44
2023-04-05T09:24:40.884Z,101902.25
2023-04-05T09:27:10.504Z,101904.63
2023-04-05T09:29:34.290Z,101900.44
2023-04-05T09:32:03.461Z,101903.44
2023-04-05T09:34:27.376Z,101897.91
2023-04-05T09:36:51.441Z,101900.75
2023-04-05T09:39:21.599Z,101905.50
2023-04-05T09:42:06.987Z,101900.34
2023-04-05T09:44:51.336Z,101899.91
2023-04-05T09:47:17.880Z,101892.88
2023-04-05T09:49:41.559Z,101895.88
2023-04-05T09:52:05.440Z,101899.78
2023-04-05T09:54:31.139Z,101889.22
2023-04-05T09:56:57.663Z,101888.16
2023-04-05T09:59:22.105Z,101884.59
2023-04-05T10:01:46.446Z,101882.69
2023-04-05T10:04:10.630Z,101892.78
2023-04-05T10:06:39.270Z,101890.00
2023-04-05T10:09:03.662Z,101885.03
2023-04-05T10:11:30.188Z,101881.16
2023-04-05T10:13:54.040Z,101891.06
2023-04-05T10:16:22.802Z,101880.34
2023-04-05T10:18:53.391Z,101883.75
2023-04-05T10:21:24.464Z,101879.88
2023-04-05T10:23:53.030Z,101884.06
2023-04-05T10:26:25.388Z,101871.16
2023-04-05T10:28:58.163Z,101873.31
2023-04-05T10:31:36.918Z,101877.84
2023-04-05T10:34:07.895Z,101875.53
2023-04-05T10:36:43.397Z,101876.44
2023-04-05T10:39:14.434Z,101877.84
2023-04-05T10:41:46.810Z,101873.94
2023-04-05T10:44:25.089Z,101875.38
2023-04-05T10:46:49.974Z,101870.34
2023-04-05T10:49:22.048Z,101871.94
2023-04-05T10:51:46.721Z,101873.13
2023-04-05T10:54:11.752Z,101871.47
2023-04-05T10:56:35.653Z,101864.66
2023-04-05T10:59:01.372Z,101875.75
2023-04-05T11:01:27.956Z,101867.34
2023-04-05T11:03:55.053Z,101875.53
2023-04-05T11:06:32.637Z,101870.34
2023-04-05T11:09:00.958Z,101875.00
2023-04-05T11:11:27.157Z,101869.53
2023-04-05T11:13:53.334Z,101854.22
2023-04-05T11:16:17.162Z,101863.63
2023-04-05T11:18:47.391Z,101862.78
2023-04-05T11:21:11.184Z,101862.84
2023-04-05T11:24:04.695Z,101857.88
2023-04-05T11:26:34.125Z,101858.72
2023-04-05T11:29:00.019Z,101857.50
2023-04-05T11:31:27.010Z,101862.34
2023-04-05T11:34:10.629Z,101852.59
2023-04-05T11:36:42.213Z,101852.56
2023-04-05T11:39:28.483Z,101850.94
2023-04-05T11:42:03.942Z,101851.69
2023-04-05T11:44:28.235Z,101857.38
2023-04-05T11:46:52.387Z,101862.28
2023-04-05T11:49:17.979Z,101850.66
2023-04-05T11:51:43.858Z,101858.16
2023-04-05T11:54:07.788Z,101867.22
2023-04-05T11:56:31.794Z,101865.28
2023-04-05T11:59:00.107Z,101860.41
2023-04-05T12:01:23.916Z,101860.25
2023-04-05T12:03:56.147Z,101857.03
2023-04-05T12:06:24.919Z,101862.88
2023-04-05T12:08:50.858Z,101857.13
2023-04-05T12:11:15.060Z,101856.69
2023-04-05T12:13:40.476Z,101854.84
2023-04-05T12:16:06.281Z,101859.16
2023-04-05T12:18:32.425Z,101858.25
2023-04-05T12:20:56.563Z,101855.47
2023-04-05T12:23:22.754Z,101846.78
2023-04-05T12:25:48.741Z,101842.66
2023-04-05T12:28:12.668Z,101831.19
2023-04-05T12:30:38.648Z,101834.03
2023-04-05T12:33:10.143Z,101833.47
2023-04-05T12:35:36.084Z,101832.44
2023-04-05T12:38:00.436Z,101822.25
2023-04-05T12:40:25.927Z,101821.91
2023-04-05T12:42:49.670Z,101828.47
2023-04-05T12:45:15.280Z,101812.38
2023-04-05T12:47:53.627Z,101819.00
2023-04-05T12:50:19.801Z,101813.84
2023-04-05T12:52:58.110Z,101814.84
2023-04-05T12:55:22.533Z,101815.75
2023-04-05T12:57:52.770Z,101811.75
2023-04-05T13:00:17.821Z,101814.38
2023-04-05T13:02:41.628Z,101809.09
2023-04-05T13:05:05.917Z,101805.69
2023-04-05T13:07:29.560Z,101806.72
2023-04-05T13:09:53.303Z,101799.53
2023-04-05T13:12:17.162Z,101791.22
2023-04-05T13:14:42.337Z,101791.56
2023-04-05T13:17:06.033Z,101793.94
2023-04-05T13:19:29.718Z,101793.03
2023-04-05T13:21:53.344Z,101785.72
2023-04-05T13:24:17.068Z,101786.72
2023-04-05T13:26:40.793Z,101785.78
2023-04-05T13:29:05.306Z,101784.94
2023-04-05T13:31:30.582Z,101783.59
2023-04-05T13:33:54.342Z,101773.88
2023-04-05T13:36:18.032Z,101773.03
2023-04-05T13:38:42.567Z,101775.41
2023-04-05T13:41:06.674Z,101764.38
2023-04-05T13:43:31.488Z,101766.16
2023-04-05T13:45:55.481Z,101758.53
2023-04-05T13:48:20.714Z,101753.19
2023-04-05T13:50:44.372Z,101752.13
2023-04-05T13:53:08.120Z,101748.03
2023-04-05T13:55:31.723Z,101755.81
2023-04-05T13:57:55.371Z,101745.53
2023-04-05T14:00:19.661Z,101749.13
2023-04-05T14:02:43.995Z,101739.38
2023-04-05T14:05:10.608Z,101740.81
2023-04-05T14:07:34.781Z,101732.88
2023-04-05T14:09:58.580Z,101730.63
2023-04-05T14:12:22.562Z,101721.63
2023-04-05T14:14:46.757Z,101717.66
2023-04-05T14:17:12.636Z,101720.00
2023-04-05T14:19:36.595Z,101717.13
2023-04-05T14:22:02.078Z,101703.25
2023-04-05T14:24:25.926Z,101709.88
2023-04-05T14:26:50.526Z,101706.34
2023-04-05T14:29:14.467Z,101699.38
2023-04-05T14:31:38.379Z,101702.81
2023-04-05T14:34:02.256Z,101698.91
2023-04-05T14:36:26.477Z,101704.53
2023-04-05T14:38:51.764Z,101705.25
2023-04-05T14:41:16.681Z,101710.78
2023-04-05T14:43:40.796Z,101708.19
2023-04-05T14:46:04.828Z,101706.69
2023-04-05T14:48:30.369Z,101701.63
2023-04-05T14:50:54.414Z,101693.16
2023-04-05T14:53:18.289Z,101700.59
2023-04-05T14:55:43.753Z,101700.22
2023-04-05T14:58:07.646Z,101698.19
2023-04-05T15:00:31.607Z,101704.31
2023-04-05T15:02:55.775Z,101696.44
2023-04-05T15:05:20.601Z,101697.13
2023-04-05T15:07:44.397Z,101697.34
2023-04-05T15:10:09.502Z,101701.25
2023-04-05T15:12:35.429Z,101695.81
2023-04-05T15:14:59.863Z,101699.13
2023-04-05T15:17:23.923Z,101694.47
2023-04-05T15:19:48.211Z,101696.31
2023-04-05T15:22:12.102Z,101695.09
2023-04-05T15:24:36.145Z,101691.50
2023-04-05T15:27:02.299Z,101691.50
2023-04-05T15:29:28.022Z,101693.19
2023-04-05T15:31:52.038Z,101690.97
2023-04-05T15:34:16.127Z,101681.19
2023-04-05T15:36:39.924Z,101691.34
2023-04-05T15:39:05.199Z,101686.06
2023-04-05T15:41:30.570Z,101685.06
2023-04-05T15:43:54.501Z,101690.88
2023-04-05T15:46:19.816Z,101683.94
2023-04-05T15:48:44.186Z,101684.88
2023-04-05T15:51:08.080Z,101687.53
2023-04-05T15:53:31.896Z,101675.47
2023-04-05T15:55:58.396Z,101684.75
2023-04-05T15:58:22.409Z,101685.44
2023-04-05T16:00:46.687Z,101682.75
2023-04-05T16:03:12.134Z,101671.06
2023-04-05T16:05:36.117Z,101683.44
2023-04-05T16:08:00.026Z,101677.19
2023-04-05T16:10:23.885Z,101669.13
2023-04-05T16:12:47.928Z,101672.09
2023-04-05T16:15:12.644Z,101675.28
2023-04-05T16:17:36.716Z,101681.84
2023-04-05T16:20:02.588Z,101676.38
2023-04-05T16:22:27.483Z,101677.84
2023-04-05T16:24:51.724Z,101670.97
2023-04-05T16:27:15.939Z,101671.59
2023-04-05T16:29:39.950Z,101667.44
2023-04-05T16:32:04.069Z,101667.31
2023-04-05T16:34:28.735Z,101669.84
2023-04-05T16:36:54.907Z,101668.34
2023-04-05T16:39:18.933Z,101670.06
2023-04-05T16:41:42.864Z,101667.91
2023-04-05T16:44:06.895Z,101666.38
2023-04-05T16:46:32.235Z,101668.16
2023-04-05T16:48:56.317Z,101667.75
2023-04-05T16:51:20.369Z,101673.94
2023-04-05T16:53:45.854Z,101667.69
2023-04-05T16:56:09.761Z,101663.25
2023-04-05T16:58:33.575Z,101663.56
2023-04-05T17:00:59.087Z,101659.53
2023-04-05T17:03:23.579Z,101666.34
2023-04-05T17:05:48.190Z,101669.72
2023-04-05T17:08:12.392Z,101668.44
2023-04-05T17:10:39.503Z,101662.91
2023-04-05T17:13:03.374Z,101665.81
2023-04-05T17:15:28.159Z,101671.75
2023-04-05T17:17:52.012Z,101668.44
2023-04-05T17:20:15.894Z,101666.47
2023-04-05T17:22:41.148Z,101678.16
2023-04-05T17:25:05.871Z,101680.25
2023-04-05T17:27:31.133Z,101678.38
2023-04-05T17:29:54.949Z,101675.97
2023-04-05T17:32:18.754Z,101679.56
2023-04-05T17:34:42.692Z,101672.81
2023-04-05T17:37:06.508Z,101674.91
2023-04-05T17:39:30.409Z,101680.44
2023-04-05T17:41:55.972Z,101675.97
2023-04-05T17:44:21.328Z,101686.88
2023-04-05T17:46:51.293Z,101688.94
2023-04-05T17:49:25.436Z,101683.09
2023-04-05T17:51:49.593Z,101686.91
2023-04-05T17:54:15.420Z,101684.66
2023-04-05T17:56:39.267Z,101685.25
2023-04-05T17:59:04.294Z,101693.31
2023-04-05T18:01:29.920Z,101688.59
2023-04-05T18:03:53.949Z,101693.03
2023-04-05T18:06:20.060Z,101696.50
2023-04-05T18:08:43.883Z,101693.66
2023-04-05T18:11:07.642Z,101696.66
2023-04-05T18:13:32.313Z,101704.34
2023-04-05T18:15:56.844Z,101698.19
2023-04-05T18:18:22.670Z,101699.22
2023-04-05T18:20:46.427Z,101698.53
2023-04-05T18:23:10.365Z,101704.47
2023-04-05T18:25:34.170Z,101707.94
2023-04-05T18:27:58.577Z,101712.19
2023-04-05T18:30:22.769Z,101706.47
2023-04-05T18:32:46.936Z,101719.03
2023-04-05T18:35:13.256Z,101714.13
2023-04-05T18:37:37.270Z,101718.50
2023-04-05T18:40:01.133Z,101721.31
2023-04-05T18:42:24.978Z,101722.31
2023-04-05T18:44:49.326Z,101724.63
2023-04-05T18:47:13.167Z,101728.09
2023-04-05T18:49:37.162Z,101722.66
2023-04-05T18:52:02.461Z,101733.63
2023-04-05T18:54:26.549Z,101728.63
2023-04-05T18:56:50.583Z,101730.19
2023-04-05T18:59:14.514Z,101734.31
2023-04-05T19:01:39.065Z,101728.78
2023-04-05T19:04:04.148Z,101732.88
2023-04-05T19:06:28.121Z,101734.50
2023-04-05T19:08:53.439Z,101736.69
2023-04-05T19:11:18.607Z,101744.72
2023-04-05T19:13:42.568Z,101740.28
2023-04-05T19:16:06.781Z,101741.16
2023-04-05T19:18:30.820Z,101733.66
2023-04-05T19:20:56.045Z,101736.00
2023-04-05T19:23:19.949Z,101731.41
2023-04-05T19:25:45.679Z,101737.97
2023-04-05T19:28:09.445Z,101741.16
2023-04-05T19:30:33.591Z,101738.97
2023-04-05T19:32:57.358Z,101734.06
2023-04-05T19:35:21.289Z,101734.31
2023-04-05T19:37:45.054Z,101730.25
2023-04-05T19:40:10.857Z,101733.81
2023-04-05T19:42:36.137Z,101731.53
2023-04-05T19:45:00.628Z,101734.38
2023-04-05T19:47:25.478Z,101731.81
2023-04-05T19:49:51.189Z,101740.63
2023-04-05T19:52:35.341Z,101739.25
2023-04-05T19:54:59.233Z,101741.41
2023-04-05T19:57:23.077Z,101741.09
2023-04-05T19:59:48.557Z,101737.50
2023-04-05T20:02:36.729Z,101735.41
2023-04-05T20:05:00.745Z,101733.56
2023-04-05T20:07:24.516Z,101730.38
2023-04-05T20:09:48.512Z,101731.56
2023-04-05T20:12:15.868Z,101739.19
2023-04-05T20:14:43.302Z,101728.88
2023-04-05T20:17:09.132Z,101738.72
2023-04-05T20:19:33.371Z,101734.31
2023-04-05T20:21:59.537Z,101729.09
2023-04-05T20:24:25.920Z,101728.16
2023-04-05T20:26:56.838Z,101729.94
2023-04-05T20:29:26.678Z,101737.88
2023-04-05T20:31:50.927Z,101726.47
2023-04-05T20:34:20.022Z,101733.38
2023-04-05T20:36:49.777Z,101728.75
2023-04-05T20:39:13.592Z,101722.00
2023-04-05T20:41:37.492Z,101720.56
2023-04-05T20:44:02.144Z,101720.66
2023-04-05T20:46:26.220Z,101721.72
2023-04-05T20:48:51.205Z,101717.56
2023-04-05T20:51:17.376Z,101715.19
2023-04-05T20:53:41.253Z,101718.09
2023-04-05T20:56:06.988Z,101721.84
2023-04-05T20:58:30.956Z,101713.44
2023-04-05T21:00:54.910Z,101708.88
2023-04-05T21:03:18.824Z,101718.19
2023-04-05T21:05:43.159Z,101711.28
2023-04-05T21:08:09.245Z,101717.69
2023-04-05T21:10:33.165Z,101713.34
2023-04-05T21:12:57.163Z,101708.19
2023-04-05T21:15:21.055Z,101712.63
2023-04-05T21:17:44.915Z,101715.59
2023-04-05T21:20:10.059Z,101720.13
2023-04-05T21:22:33.938Z,101719.38
2023-04-05T21:24:59.151Z,101722.66
2023-04-05T21:27:22.973Z,101715.66
2023-04-05T21:29:46.764Z,101720.13
2023-04-05T21:32:10.591Z,101719.28
2023-04-05T21:34:34.378Z,101707.72
2023-04-05T21:36:58.104Z,101718.34
2023-04-05T21:39:22.026Z,101715.66
2023-04-05T21:41:47.386Z,101717.91
2023-04-05T21:44:11.230Z,101713.34
2023-04-05T21:46:35.061Z,101714.88
2023-04-05T21:48:58.997Z,101702.84
2023-04-05T21:51:23.204Z,101703.56
2023-04-05T21:53:48.053Z,101709.19
2023-04-05T21:56:11.885Z,101709.19
2023-04-05T21:58:37.194Z,101710.81
2023-04-05T22:01:01.526Z,101713.91
2023-04-05T22:03:25.640Z,101707.56
2023-04-05T22:05:49.464Z,101701.09
2023-04-05T22:08:13.521Z,101707.44
2023-04-05T22:10:37.520Z,101707.06
2023-04-05T22:13:01.446Z,101700.06
2023-04-05T22:15:26.702Z,101705.69
2023-04-05T22:17:50.624Z,101703.94
2023-04-05T22:20:14.911Z,101702.59
2023-04-05T22:22:38.794Z,101700.19
2023-04-05T22:25:02.593Z,101707.63
2023-04-05T22:27:28.278Z,101707.53
2023-04-05T22:29:52.887Z,101706.69
2023-04-05T22:32:18.119Z,101710.41
2023-04-05T22:34:41.941Z,101711.16
2023-04-05T22:37:05.976Z,101713.53
2023-04-05T22:39:29.774Z,101705.91
2023-04-05T22:41:53.709Z,101707.22
2023-04-05T22:44:17.460Z,101716.41
2023-04-05T22:46:41.320Z,101712.81
2023-04-05T22:49:06.853Z,101709.34
2023-04-05T22:51:31.700Z,101712.81
2023-04-05T22:53:55.484Z,101716.28
2023-04-05T22:56:21.503Z,101708.03
2023-04-05T22:58:45.248Z,101712.47
2023-04-05T23:01:09.674Z,101710.81
2023-04-05T23:03:33.662Z,101714.94
2023-04-05T23:05:58.906Z,101701.69
2023-04-05T23:08:22.696Z,101714.47
2023-04-05T23:10:46.955Z,101707.97
2023-04-05T23:13:10.737Z,101705.22
2023-04-05T23:15:34.679Z,101704.56
2023-04-05T23:17:58.543Z,101712.16
2023-04-05T23:20:22.650Z,101707.63
2023-04-05T23:22:48.100Z,101699.34
2023-04-05T23:25:12.498Z,101702.44
2023-04-05T23:27:36.430Z,101706.03
2023-04-05T23:30:00.377Z,101700.97
2023-04-05T23:32:24.312Z,101700.31
2023-04-05T23:34:48.649Z,101697.56
2023-04-05T23:37:12.421Z,101705.75
2023-04-05T23:39:37.870Z,101702.47
2023-04-05T23:42:01.849Z,101702.72
2023-04-05T23:44:25.896Z,101705.50
2023-04-05T23:46:49.692Z,101699.78
2023-04-05T23:49:13.494Z,101703.09
2023-04-05T23:51:37.355Z,101694.56
2023-04-05T23:54:01.247Z,101692.16
2023-04-05T23:56:26.515Z,101695.53
2023-04-05T23:58:50.506Z,101690.78
